Terminal Aerodrome Forecast
Issued by NWS

Home | Current Version | Previous Version | Graphics & Text | Print | Product List | Glossary On
Versions: 1 2 3 4 5 6 7 8 9 10 11 12 13 14 15 16 17
000
FTUS43 KMPX 242344
TAFRNH
TAF
KRNH 242344Z 2500/2524 VRB02KT P6SM BKN120 OVC250
     FM250500 04007KT P6SM BKN025 OVC100
     FM250600 03010KT 6SM -SN OVC015
     FM250800 03014G22KT P6SM -SN OVC014
     FM251000 03013KT P6SM BKN020
     FM251500 03010KT P6SM SCT030=

USA.gov is the U.S. government's official web portal to all federal, state and local government web resources and services.